Sunny Isles Beach, Florida
Current Conditions -  °F | °C
As of 12:22 AM on Wednesday 26 Nov 2014 (Local Time) from KHWO Reporting Station
Light Rain Light Rain  
Wind Chill: 79°   Ceiling: 1800
Heat Index: 83°   Visibility: 10mi
Dew Point: 76°   Wind: 9mph
Humidity: 90%   Direction: 170°S
Pressure: 29.94"   Gusts: NA
Location:  25.9339°N, 80.1467°W
Report Text: KHWO 260522Z AUTO 17008KT 10SM -RA SCT013 BKN018 OVC044 26/24 A2994 RMK AO2 RAB15 P0000 T02610244
Loading
Personal Weather Stations






























Interactive Weather Map New forecast layout! Learn more

10-Day Weather Forecast

Advertisements
Track Severe Weather on mobile